createdAt,value
2022-08-19T00:00:13.622Z,18.89
2022-08-19T00:01:13.623Z,18.89
2022-08-19T00:02:13.592Z,18.86
2022-08-19T00:03:16.622Z,18.88
2022-08-19T00:04:16.633Z,18.88
2022-08-19T00:05:13.583Z,18.88
2022-08-19T00:06:13.554Z,18.90
2022-08-19T00:07:13.532Z,18.89
2022-08-19T00:08:13.515Z,18.88
2022-08-19T00:09:13.515Z,18.88
2022-08-19T00:10:13.515Z,18.88
2022-08-19T00:11:18.680Z,18.88
2022-08-19T00:12:14.474Z,18.86
2022-08-19T00:13:13.449Z,18.81
2022-08-19T00:14:13.438Z,18.78
2022-08-19T00:15:13.463Z,18.78
2022-08-19T00:16:13.408Z,18.75
2022-08-19T00:17:13.419Z,18.74
2022-08-19T00:18:13.380Z,18.74
2022-08-19T00:19:13.370Z,18.71
2022-08-19T00:20:13.357Z,18.74
2022-08-19T00:21:13.401Z,18.74
2022-08-19T00:22:13.333Z,18.75
2022-08-19T00:23:16.312Z,18.75
2022-08-19T00:24:16.315Z,18.77
2022-08-19T00:25:13.299Z,18.74
2022-08-19T00:26:13.273Z,18.75
2022-08-19T00:27:26.533Z,18.77
2022-08-19T00:28:14.254Z,18.74
2022-08-19T00:29:13.249Z,18.73
2022-08-19T00:30:13.215Z,18.74
2022-08-19T00:31:13.206Z,18.73
2022-08-19T00:32:13.233Z,18.71
2022-08-19T00:33:13.206Z,18.70
2022-08-19T00:34:13.197Z,18.71
2022-08-19T00:35:13.150Z,18.70
2022-08-19T00:36:13.138Z,18.73
2022-08-19T00:37:13.118Z,18.71
2022-08-19T00:38:13.107Z,18.73
2022-08-19T00:39:13.169Z,18.74
2022-08-19T00:40:13.110Z,18.77
2022-08-19T00:41:13.061Z,18.78
2022-08-19T00:42:15.679Z,18.81
2022-08-19T00:43:16.039Z,18.84
2022-08-19T00:44:16.092Z,18.88
2022-08-19T00:45:13.010Z,18.89
2022-08-19T00:46:12.994Z,18.90
2022-08-19T00:47:14.284Z,18.93
2022-08-19T00:48:14.936Z,18.92
2022-08-19T00:49:12.968Z,18.95
2022-08-19T00:50:12.935Z,18.92
2022-08-19T00:51:12.925Z,18.92
2022-08-19T00:52:12.918Z,18.92
2022-08-19T00:53:12.925Z,18.92
2022-08-19T00:54:12.882Z,18.93
2022-08-19T00:55:12.874Z,18.95
2022-08-19T00:56:12.874Z,18.96
2022-08-19T00:57:12.877Z,18.96
2022-08-19T00:58:12.896Z,18.98
2022-08-19T00:59:12.834Z,18.99
2022-08-19T01:00:12.799Z,18.99
2022-08-19T01:01:12.826Z,18.98
2022-08-19T01:02:12.777Z,18.99
2022-08-19T01:03:15.791Z,18.98
2022-08-19T01:04:15.769Z,18.99
2022-08-19T01:05:12.737Z,18.98
2022-08-19T01:06:12.721Z,18.96
2022-08-19T01:07:15.206Z,18.93
2022-08-19T01:08:13.727Z,18.93
2022-08-19T01:09:12.683Z,18.92
2022-08-19T01:10:12.678Z,18.92
2022-08-19T01:11:12.688Z,18.90
2022-08-19T01:12:12.643Z,18.88
2022-08-19T01:13:12.653Z,18.84
2022-08-19T01:14:12.614Z,18.84
2022-08-19T01:15:12.616Z,18.84
2022-08-19T01:16:12.585Z,18.86
2022-08-19T01:17:12.576Z,18.86
2022-08-19T01:18:12.575Z,18.84
2022-08-19T01:19:12.570Z,18.84
2022-08-19T01:20:12.526Z,18.84
2022-08-19T01:21:12.518Z,18.83
2022-08-19T01:22:14.195Z,18.80
2022-08-19T01:23:15.508Z,18.78
2022-08-19T01:24:15.524Z,18.80
2022-08-19T01:25:14.843Z,18.77
2022-08-19T01:26:12.442Z,18.77
2022-08-19T01:27:12.460Z,18.77
2022-08-19T01:28:12.419Z,18.75
2022-08-19T01:29:12.438Z,18.77
2022-08-19T01:30:12.390Z,18.78
2022-08-19T01:31:12.380Z,18.77
2022-08-19T01:32:33.173Z,18.77
2022-08-19T01:33:13.392Z,18.75
2022-08-19T01:34:12.333Z,18.73
2022-08-19T01:35:12.343Z,18.68
2022-08-19T01:36:12.314Z,18.68
2022-08-19T01:37:12.287Z,18.68
2022-08-19T01:38:12.469Z,18.68
2022-08-19T01:39:12.280Z,18.68
2022-08-19T01:40:12.326Z,18.68
2022-08-19T01:41:12.225Z,18.71
2022-08-19T01:42:12.231Z,18.73
2022-08-19T01:43:15.198Z,18.71
2022-08-19T01:44:18.794Z,18.70
2022-08-19T01:45:12.167Z,18.68
2022-08-19T01:46:12.318Z,18.68
2022-08-19T01:47:12.175Z,18.70
2022-08-19T01:48:12.142Z,18.71
2022-08-19T01:49:12.118Z,18.71
2022-08-19T01:50:12.100Z,18.70
2022-08-19T01:51:12.095Z,18.66
2022-08-19T01:52:12.101Z,18.65
2022-08-19T01:53:12.103Z,18.65
2022-08-19T01:54:12.052Z,18.65
2022-08-19T01:55:12.053Z,18.62
2022-08-19T01:56:12.017Z,18.58
2022-08-19T01:57:12.002Z,18.56
2022-08-19T01:58:12.004Z,18.56
2022-08-19T01:59:12.033Z,18.55
2022-08-19T02:00:11.954Z,18.55
2022-08-19T02:01:11.988Z,18.52
2022-08-19T02:02:11.926Z,18.49
2022-08-19T02:03:14.946Z,18.47
2022-08-19T02:04:14.956Z,18.45
2022-08-19T02:05:11.884Z,18.44
2022-08-19T02:06:11.887Z,18.41
2022-08-19T02:07:11.854Z,18.38
2022-08-19T02:08:11.843Z,18.35
2022-08-19T02:09:11.836Z,18.34
2022-08-19T02:10:12.597Z,18.33
2022-08-19T02:11:11.798Z,18.35
2022-08-19T02:12:11.788Z,18.35
2022-08-19T02:13:11.770Z,18.34
2022-08-19T02:14:11.800Z,18.35
2022-08-19T02:15:11.752Z,18.35
2022-08-19T02:16:11.730Z,18.40
2022-08-19T02:17:11.715Z,18.41
2022-08-19T02:18:11.708Z,18.44
2022-08-19T02:19:11.695Z,18.45
2022-08-19T02:20:11.723Z,18.47
2022-08-19T02:21:11.653Z,18.49
2022-08-19T02:22:11.653Z,18.52
2022-08-19T02:23:16.157Z,18.55
2022-08-19T02:24:14.634Z,18.56
2022-08-19T02:25:11.606Z,18.55
2022-08-19T02:26:11.646Z,18.52
2022-08-19T02:27:11.577Z,18.52
2022-08-19T02:28:14.535Z,18.47
2022-08-19T02:29:12.547Z,18.47
2022-08-19T02:30:14.141Z,18.41
2022-08-19T02:31:11.527Z,18.38
2022-08-19T02:32:11.537Z,18.35
2022-08-19T02:33:11.497Z,18.35
2022-08-19T02:34:11.494Z,18.33
2022-08-19T02:35:12.183Z,18.31
2022-08-19T02:36:11.499Z,18.33
2022-08-19T02:37:11.430Z,18.29
2022-08-19T02:38:11.422Z,18.26
2022-08-19T02:39:11.434Z,18.26
2022-08-19T02:40:12.454Z,18.23
2022-08-19T02:41:11.400Z,18.19
2022-08-19T02:42:11.389Z,18.20
2022-08-19T02:43:14.350Z,18.19
2022-08-19T02:44:30.456Z,18.20
2022-08-19T02:45:12.314Z,18.16
2022-08-19T02:46:11.343Z,18.16
2022-08-19T02:47:11.293Z,18.13
2022-08-19T02:48:14.946Z,18.18
2022-08-19T02:49:12.327Z,18.18
2022-08-19T02:50:11.247Z,18.18
2022-08-19T02:51:11.238Z,18.19
2022-08-19T02:52:11.248Z,18.19
2022-08-19T02:53:11.215Z,18.19
2022-08-19T02:54:11.196Z,18.19
2022-08-19T02:55:11.204Z,18.20
2022-08-19T02:56:11.167Z,18.20
2022-08-19T02:57:11.190Z,18.20
2022-08-19T02:58:11.137Z,18.20
2022-08-19T02:59:11.536Z,18.20
2022-08-19T03:00:11.106Z,18.16
2022-08-19T03:01:11.107Z,18.16
2022-08-19T03:02:11.078Z,18.18
2022-08-19T03:03:14.098Z,18.19
2022-08-19T03:04:14.072Z,18.19
2022-08-19T03:05:11.030Z,18.16
2022-08-19T03:06:11.022Z,18.11
2022-08-19T03:07:11.466Z,18.11
2022-08-19T03:08:10.992Z,18.11
2022-08-19T03:09:10.981Z,18.11
2022-08-19T03:10:10.962Z,18.11
2022-08-19T03:11:10.943Z,18.10
2022-08-19T03:12:10.985Z,18.10
2022-08-19T03:13:10.916Z,18.15
2022-08-19T03:14:10.922Z,18.16
2022-08-19T03:15:10.886Z,18.18
2022-08-19T03:16:10.879Z,18.19
2022-08-19T03:17:10.871Z,18.19
2022-08-19T03:18:10.899Z,18.20
2022-08-19T03:19:10.839Z,18.22
2022-08-19T03:20:10.830Z,18.23
2022-08-19T03:21:12.366Z,18.25
2022-08-19T03:22:10.800Z,18.26
2022-08-19T03:23:13.841Z,18.28
2022-08-19T03:24:13.781Z,18.31
2022-08-19T03:25:10.750Z,18.29
2022-08-19T03:26:15.912Z,18.26
2022-08-19T03:27:11.721Z,18.25
2022-08-19T03:28:10.718Z,18.26
2022-08-19T03:29:10.732Z,18.25
2022-08-19T03:30:11.665Z,18.25
2022-08-19T03:31:43.806Z,18.26
2022-08-19T03:32:27.913Z,18.26
2022-08-19T03:33:11.643Z,18.26
2022-08-19T03:34:11.684Z,18.26
2022-08-19T03:35:10.613Z,18.26
2022-08-19T03:36:10.595Z,18.25
2022-08-19T03:37:10.586Z,18.26
2022-08-19T03:38:10.574Z,18.26
2022-08-19T03:39:10.557Z,18.25
2022-08-19T03:40:10.635Z,18.25
2022-08-19T03:41:11.525Z,18.26
2022-08-19T03:42:45.354Z,18.26
2022-08-19T03:43:14.497Z,18.29
2022-08-19T03:44:18.032Z,18.26
2022-08-19T03:45:11.469Z,18.26
2022-08-19T03:46:10.459Z,18.25
2022-08-19T03:47:10.440Z,18.25
2022-08-19T03:48:10.429Z,18.26
2022-08-19T03:49:10.411Z,18.25
2022-08-19T03:50:10.432Z,18.26
2022-08-19T03:51:10.410Z,18.28
2022-08-19T03:52:10.391Z,18.25
2022-08-19T03:53:10.352Z,18.23
2022-08-19T03:54:10.342Z,18.22
2022-08-19T03:55:10.505Z,18.20
2022-08-19T03:56:10.313Z,18.19
2022-08-19T03:57:10.292Z,18.18
2022-08-19T03:58:10.294Z,18.18
2022-08-19T03:59:10.286Z,18.18
2022-08-19T04:00:13.704Z,18.18
2022-08-19T04:01:10.461Z,18.18
2022-08-19T04:02:10.346Z,18.18
2022-08-19T04:03:13.242Z,18.16
2022-08-19T04:04:13.218Z,18.16
2022-08-19T04:05:10.186Z,18.15
2022-08-19T04:06:10.174Z,18.15
2022-08-19T04:07:10.231Z,18.13
2022-08-19T04:08:13.792Z,18.11
2022-08-19T04:09:10.130Z,18.11
2022-08-19T04:10:10.666Z,18.10
2022-08-19T04:11:10.100Z,18.07
2022-08-19T04:12:10.089Z,18.07
2022-08-19T04:13:10.113Z,18.08
2022-08-19T04:14:10.071Z,18.07
2022-08-19T04:15:10.069Z,18.07
2022-08-19T04:16:10.031Z,18.07
2022-08-19T04:17:10.013Z,18.10
2022-08-19T04:18:10.015Z,18.10
2022-08-19T04:19:09.985Z,18.10
2022-08-19T04:20:10.005Z,18.11
2022-08-19T04:21:09.954Z,18.10
2022-08-19T04:22:09.981Z,18.08
2022-08-19T04:23:12.925Z,18.07
2022-08-19T04:24:12.934Z,18.10
2022-08-19T04:25:09.918Z,18.07
2022-08-19T04:26:09.890Z,18.04
2022-08-19T04:27:09.906Z,18.05
2022-08-19T04:28:09.886Z,18.04
2022-08-19T04:29:12.554Z,18.05
2022-08-19T04:30:09.856Z,18.08
2022-08-19T04:31:09.815Z,18.10
2022-08-19T04:32:10.049Z,18.11
2022-08-19T04:33:09.790Z,18.16
2022-08-19T04:34:09.779Z,18.19
2022-08-19T04:35:18.483Z,18.20
2022-08-19T04:36:10.783Z,18.23
2022-08-19T04:37:09.731Z,18.22
2022-08-19T04:38:09.721Z,18.23
2022-08-19T04:39:09.709Z,18.19
2022-08-19T04:40:09.770Z,18.22
2022-08-19T04:41:09.702Z,18.22
2022-08-19T04:42:09.661Z,18.20
2022-08-19T04:43:12.643Z,18.22
2022-08-19T04:44:12.644Z,18.28
2022-08-19T04:45:12.510Z,18.22
2022-08-19T04:46:09.684Z,18.22
2022-08-19T04:47:11.079Z,18.23
2022-08-19T04:48:27.426Z,18.23
2022-08-19T04:49:13.242Z,18.25
2022-08-19T04:50:10.321Z,18.25
2022-08-19T04:51:09.556Z,18.23
2022-08-19T04:52:09.652Z,18.23
2022-08-19T04:53:09.506Z,18.22
2022-08-19T04:54:09.496Z,18.19
2022-08-19T04:55:09.489Z,18.16
2022-08-19T04:56:09.510Z,18.08
2022-08-19T04:57:09.622Z,18.03
2022-08-19T04:58:09.439Z,17.98
2022-08-19T04:59:09.420Z,17.95
2022-08-19T05:00:09.427Z,17.94
2022-08-19T05:01:09.486Z,17.92
2022-08-19T05:02:09.420Z,17.90
2022-08-19T05:03:12.412Z,17.94
2022-08-19T05:04:12.370Z,17.95
2022-08-19T05:05:09.348Z,17.94
2022-08-19T05:06:09.323Z,17.94
2022-08-19T05:07:09.319Z,17.94
2022-08-19T05:08:09.321Z,17.97
2022-08-19T05:09:09.313Z,17.98
2022-08-19T05:10:09.272Z,18.01
2022-08-19T05:11:09.258Z,18.01
2022-08-19T05:12:09.255Z,18.03
2022-08-19T05:13:09.224Z,18.05
2022-08-19T05:14:09.237Z,18.10
2022-08-19T05:15:09.195Z,18.11
2022-08-19T05:16:09.198Z,18.16
2022-08-19T05:17:26.453Z,18.19
2022-08-19T05:18:10.156Z,18.19
2022-08-19T05:19:09.164Z,18.19
2022-08-19T05:20:09.130Z,18.19
2022-08-19T05:21:09.109Z,18.18
2022-08-19T05:22:09.090Z,18.16
2022-08-19T05:23:13.331Z,18.15
2022-08-19T05:24:13.146Z,18.18
2022-08-19T05:25:13.400Z,18.16
2022-08-19T05:26:09.045Z,18.18
2022-08-19T05:27:09.022Z,18.11
2022-08-19T05:28:09.012Z,18.11
2022-08-19T05:29:08.995Z,18.07
2022-08-19T05:30:09.017Z,18.05
2022-08-19T05:31:08.993Z,18.04
2022-08-19T05:32:08.963Z,18.03
2022-08-19T05:33:08.962Z,18.01
2022-08-19T05:34:18.238Z,17.98
2022-08-19T05:35:09.985Z,17.98
2022-08-19T05:36:08.895Z,18.03
2022-08-19T05:37:08.897Z,18.01
2022-08-19T05:38:08.875Z,18.01
2022-08-19T05:39:08.879Z,18.00
2022-08-19T05:40:08.967Z,18.01
2022-08-19T05:41:08.826Z,18.01
2022-08-19T05:42:08.816Z,18.03
2022-08-19T05:43:11.801Z,18.07
2022-08-19T05:44:11.826Z,18.07
2022-08-19T05:45:08.821Z,18.08
2022-08-19T05:46:08.756Z,18.07
2022-08-19T05:47:08.740Z,18.10
2022-08-19T05:48:08.735Z,18.10
2022-08-19T05:49:08.801Z,18.08
2022-08-19T05:50:08.701Z,18.15
2022-08-19T05:51:08.713Z,18.19
2022-08-19T05:52:08.681Z,18.26
2022-08-19T05:53:08.664Z,18.34
2022-08-19T05:54:08.643Z,18.41
2022-08-19T05:55:08.643Z,18.43
2022-08-19T05:56:08.645Z,18.41
2022-08-19T05:57:08.633Z,18.40
2022-08-19T05:58:08.753Z,18.40
2022-08-19T05:59:08.572Z,18.35
2022-08-19T06:00:08.567Z,18.31
2022-08-19T06:01:08.555Z,18.29
2022-08-19T06:02:08.591Z,18.33
2022-08-19T06:03:12.724Z,18.37
2022-08-19T06:04:11.517Z,18.49
2022-08-19T06:05:08.487Z,18.52
2022-08-19T06:06:08.467Z,18.62
2022-08-19T06:07:11.940Z,18.70
2022-08-19T06:08:08.519Z,18.74
2022-08-19T06:09:08.431Z,18.81
2022-08-19T06:10:08.419Z,18.96
2022-08-19T06:11:08.400Z,19.08
2022-08-19T06:12:08.389Z,19.15
2022-08-19T06:13:08.378Z,19.22
2022-08-19T06:14:08.408Z,19.29
2022-08-19T06:15:09.351Z,19.37
2022-08-19T06:16:08.331Z,19.47
2022-08-19T06:17:08.327Z,19.49
2022-08-19T06:18:08.302Z,19.51
2022-08-19T06:19:08.293Z,19.55
2022-08-19T06:20:08.323Z,19.49
2022-08-19T06:21:08.265Z,19.58
2022-08-19T06:22:08.357Z,19.73
2022-08-19T06:23:11.235Z,19.85
2022-08-19T06:24:12.242Z,20.00
2022-08-19T06:25:08.254Z,20.11
2022-08-19T06:26:08.198Z,20.21
2022-08-19T06:27:08.203Z,20.28
2022-08-19T06:28:15.797Z,20.22
2022-08-19T06:29:09.158Z,20.02
2022-08-19T06:30:08.208Z,19.95
2022-08-19T06:31:08.141Z,19.88
2022-08-19T06:32:08.121Z,19.89
2022-08-19T06:33:08.099Z,19.79
2022-08-19T06:34:08.091Z,19.62
2022-08-19T06:35:08.082Z,19.52
2022-08-19T06:36:08.089Z,19.47
2022-08-19T06:37:08.053Z,19.45
2022-08-19T06:38:08.052Z,19.37
2022-08-19T06:39:08.024Z,19.27
2022-08-19T06:40:08.060Z,19.19
2022-08-19T06:41:08.226Z,19.16
2022-08-19T06:42:08.065Z,19.18
2022-08-19T06:43:10.975Z,19.19
2022-08-19T06:44:13.190Z,19.24
2022-08-19T06:45:09.327Z,19.22
2022-08-19T06:46:07.927Z,19.16
2022-08-19T06:47:14.278Z,19.18
2022-08-19T06:48:08.956Z,19.12
2022-08-19T06:49:07.887Z,19.02
2022-08-19T06:50:07.876Z,18.98
2022-08-19T06:51:08.761Z,18.90
2022-08-19T06:52:07.847Z,18.84
2022-08-19T06:53:07.829Z,18.80
2022-08-19T06:54:07.868Z,18.74
2022-08-19T06:55:08.833Z,18.70
2022-08-19T06:56:07.789Z,18.71
2022-08-19T06:57:07.779Z,18.75
2022-08-19T06:58:07.772Z,18.80
2022-08-19T06:59:07.780Z,18.81
2022-08-19T07:00:12.235Z,18.77
2022-08-19T07:01:09.293Z,18.81
2022-08-19T07:02:07.764Z,18.81
2022-08-19T07:03:13.291Z,18.86
2022-08-19T07:04:12.168Z,18.93
2022-08-19T07:05:07.664Z,18.90
2022-08-19T07:06:09.861Z,18.93
2022-08-19T07:07:20.211Z,18.93
2022-08-19T07:08:08.633Z,18.93
2022-08-19T07:09:07.675Z,18.93
2022-08-19T07:10:07.862Z,18.89
2022-08-19T07:11:09.235Z,18.88
2022-08-19T07:12:07.572Z,18.89
2022-08-19T07:13:07.555Z,18.84
2022-08-19T07:14:07.543Z,18.88
2022-08-19T07:15:08.686Z,18.90
2022-08-19T07:16:07.506Z,18.96
2022-08-19T07:17:07.518Z,18.96
2022-08-19T07:18:07.479Z,18.92
2022-08-19T07:19:13.010Z,18.89
2022-08-19T07:20:09.675Z,18.89
2022-08-19T07:21:09.461Z,18.84
2022-08-19T07:22:07.428Z,18.84
2022-08-19T07:23:16.001Z,18.88
2022-08-19T07:24:11.417Z,18.88
2022-08-19T07:25:07.383Z,18.89
2022-08-19T07:26:07.364Z,18.90
2022-08-19T07:27:10.360Z,18.95
2022-08-19T07:28:08.343Z,18.92
2022-08-19T07:29:08.324Z,18.95
2022-08-19T07:30:07.337Z,18.96
2022-08-19T07:31:07.311Z,19.00
2022-08-19T07:32:07.288Z,19.08
2022-08-19T07:33:07.268Z,19.14
2022-08-19T07:34:07.255Z,19.21
2022-08-19T07:35:07.287Z,19.21
2022-08-19T07:36:07.246Z,19.19
2022-08-19T07:37:07.217Z,19.15
2022-08-19T07:38:07.254Z,19.16
2022-08-19T07:39:07.190Z,19.14
2022-08-19T07:40:07.308Z,19.22
2022-08-19T07:41:07.166Z,19.27
2022-08-19T07:42:07.170Z,19.31
2022-08-19T07:43:13.614Z,19.39
2022-08-19T07:44:10.152Z,19.48
2022-08-19T07:45:07.111Z,19.55
2022-08-19T07:46:07.089Z,19.64
2022-08-19T07:47:07.072Z,19.70
2022-08-19T07:48:08.093Z,19.81
2022-08-19T07:49:07.049Z,19.88
2022-08-19T07:50:07.794Z,19.94
2022-08-19T07:51:07.023Z,20.02
2022-08-19T07:52:07.015Z,20.02
2022-08-19T07:53:07.022Z,20.10
2022-08-19T07:54:06.983Z,20.07
2022-08-19T07:55:06.975Z,20.06
2022-08-19T07:56:07.956Z,20.07
2022-08-19T07:57:06.938Z,20.11
2022-08-19T07:58:07.455Z,20.16
2022-08-19T07:59:06.917Z,20.29
2022-08-19T08:00:06.900Z,20.36
2022-08-19T08:01:06.911Z,20.29
2022-08-19T08:02:06.947Z,20.43
2022-08-19T08:03:09.977Z,20.51
2022-08-19T08:04:09.859Z,20.63
2022-08-19T08:05:06.857Z,20.75
2022-08-19T08:06:06.821Z,20.92
2022-08-19T08:07:06.810Z,21.03
2022-08-19T08:08:06.800Z,21.14
2022-08-19T08:09:07.051Z,21.09
2022-08-19T08:10:07.301Z,21.12
2022-08-19T08:11:08.322Z,20.99
2022-08-19T08:12:32.928Z,20.96
2022-08-19T08:13:10.150Z,21.00
2022-08-19T08:14:06.884Z,21.18
2022-08-19T08:15:08.337Z,21.43
2022-08-19T08:16:06.686Z,21.80
2022-08-19T08:17:10.912Z,22.08
2022-08-19T08:18:06.656Z,22.33
2022-08-19T08:19:14.722Z,22.41
2022-08-19T08:20:07.657Z,22.44
2022-08-19T08:21:06.647Z,22.35
2022-08-19T08:22:06.607Z,22.10
2022-08-19T08:23:09.641Z,22.04
2022-08-19T08:24:09.618Z,22.20
2022-08-19T08:25:06.750Z,22.18
2022-08-19T08:26:06.556Z,22.13
2022-08-19T08:27:11.080Z,22.25
2022-08-19T08:28:07.529Z,22.10
2022-08-19T08:29:12.211Z,22.15
2022-08-19T08:30:07.551Z,22.15
2022-08-19T08:31:09.466Z,22.08
2022-08-19T08:32:14.900Z,21.77
2022-08-19T08:33:07.515Z,21.62
2022-08-19T08:34:06.460Z,21.57
2022-08-19T08:35:06.436Z,21.51
2022-08-19T08:36:06.444Z,21.54
2022-08-19T08:37:06.434Z,21.60
2022-08-19T08:38:06.395Z,21.67
2022-08-19T08:39:06.380Z,21.72
2022-08-19T08:40:08.076Z,21.61
2022-08-19T08:41:06.401Z,21.57
2022-08-19T08:42:10.215Z,21.48
2022-08-19T08:43:11.203Z,21.48
2022-08-19T08:44:09.318Z,21.55
2022-08-19T08:45:07.298Z,21.58
2022-08-19T08:46:06.309Z,21.73
2022-08-19T08:47:07.900Z,21.77
2022-08-19T08:48:06.262Z,21.82
2022-08-19T08:49:07.242Z,21.88
2022-08-19T08:50:06.262Z,21.83
2022-08-19T08:51:06.243Z,21.75
2022-08-19T08:52:06.208Z,21.75
2022-08-19T08:53:06.193Z,21.72
2022-08-19T08:54:06.182Z,21.76
2022-08-19T08:55:10.247Z,21.79
2022-08-19T08:56:06.213Z,21.85
2022-08-19T08:57:06.149Z,21.92
2022-08-19T08:58:06.124Z,21.93
2022-08-19T08:59:06.115Z,21.98
2022-08-19T09:00:06.111Z,21.91
2022-08-19T09:01:07.172Z,21.79
2022-08-19T09:02:06.095Z,21.76
2022-08-19T09:03:09.056Z,21.72
2022-08-19T09:04:09.067Z,21.61
2022-08-19T09:05:06.030Z,21.60
2022-08-19T09:06:06.008Z,21.67
2022-08-19T09:07:17.930Z,21.67
2022-08-19T09:08:07.139Z,21.77
2022-08-19T09:09:11.761Z,21.77
2022-08-19T09:10:06.997Z,21.85
2022-08-19T09:11:05.940Z,21.79
2022-08-19T09:12:05.938Z,21.69
2022-08-19T09:13:09.180Z,21.76
2022-08-19T09:14:05.943Z,21.89
2022-08-19T09:15:05.894Z,21.92
2022-08-19T09:16:05.885Z,21.98
2022-08-19T09:17:05.879Z,22.14
2022-08-19T09:18:07.159Z,22.28
2022-08-19T09:19:06.459Z,22.41
2022-08-19T09:20:05.895Z,22.57
2022-08-19T09:21:05.816Z,22.73
2022-08-19T09:22:05.798Z,22.78
2022-08-19T09:23:08.804Z,22.81
2022-08-19T09:24:08.794Z,22.85
2022-08-19T09:25:05.767Z,22.83
2022-08-19T09:26:05.789Z,22.87
2022-08-19T09:27:16.006Z,22.88
2022-08-19T09:28:15.185Z,22.94
2022-08-19T09:29:06.725Z,23.06
2022-08-19T09:30:05.695Z,23.17
2022-08-19T09:31:05.681Z,23.09
2022-08-19T09:32:05.721Z,22.91
2022-08-19T09:33:06.662Z,22.80
2022-08-19T09:34:05.843Z,22.75
2022-08-19T09:35:08.713Z,22.88
2022-08-19T09:36:08.522Z,22.99
2022-08-19T09:37:05.602Z,23.17
2022-08-19T09:38:05.613Z,23.37
2022-08-19T09:39:05.574Z,23.58
2022-08-19T09:40:06.585Z,23.78
2022-08-19T09:41:05.544Z,24.03
2022-08-19T09:42:05.575Z,24.24
2022-08-19T09:43:10.007Z,24.45
2022-08-19T09:44:08.521Z,24.55
2022-08-19T09:45:05.503Z,24.57
2022-08-19T09:46:06.478Z,24.60
2022-08-19T09:47:05.469Z,24.51
2022-08-19T09:48:05.478Z,24.32
2022-08-19T09:49:06.547Z,24.11
2022-08-19T09:50:05.421Z,24.05
2022-08-19T09:51:05.412Z,23.95
2022-08-19T09:52:05.396Z,23.88
2022-08-19T09:53:05.381Z,23.71
2022-08-19T09:54:05.402Z,23.73
2022-08-19T09:55:07.118Z,23.77
2022-08-19T09:56:05.332Z,23.88
2022-08-19T09:57:05.330Z,23.93
2022-08-19T09:58:05.312Z,23.83
2022-08-19T09:59:05.324Z,23.76
2022-08-19T10:00:05.293Z,23.73
2022-08-19T10:01:05.329Z,23.63
2022-08-19T10:02:11.197Z,23.55
2022-08-19T10:03:09.246Z,23.48
2022-08-19T10:04:20.126Z,23.50
2022-08-19T10:05:06.221Z,23.31
2022-08-19T10:06:05.236Z,23.10
2022-08-19T10:07:06.201Z,23.13
2022-08-19T10:08:05.214Z,23.25
2022-08-19T10:09:06.168Z,23.27
2022-08-19T10:10:05.178Z,23.39
2022-08-19T10:11:28.210Z,23.47
2022-08-19T10:12:06.345Z,23.68
2022-08-19T10:13:06.139Z,23.84
2022-08-19T10:14:05.121Z,23.86
2022-08-19T10:15:05.121Z,23.80
2022-08-19T10:16:05.072Z,23.80
2022-08-19T10:17:19.320Z,23.80
2022-08-19T10:18:06.051Z,23.76
2022-08-19T10:19:05.948Z,23.87
2022-08-19T10:20:05.053Z,24.03
2022-08-19T10:21:05.003Z,24.08
2022-08-19T10:22:05.154Z,24.20
2022-08-19T10:23:08.975Z,24.26
2022-08-19T10:24:09.470Z,24.20
2022-08-19T10:25:04.954Z,24.05
2022-08-19T10:26:04.978Z,24.05
2022-08-19T10:27:04.938Z,23.98
2022-08-19T10:28:04.960Z,23.92
2022-08-19T10:29:05.930Z,23.87
2022-08-19T10:30:04.904Z,23.98
2022-08-19T10:31:05.883Z,24.06
2022-08-19T10:32:04.872Z,24.20
2022-08-19T10:33:08.435Z,24.36
2022-08-19T10:34:05.892Z,24.51
2022-08-19T10:35:06.036Z,24.50
2022-08-19T10:36:04.844Z,24.47
2022-08-19T10:37:04.813Z,24.35
2022-08-19T10:38:05.951Z,24.33
2022-08-19T10:39:04.774Z,24.32
2022-08-19T10:40:04.822Z,24.40
2022-08-19T10:41:04.770Z,24.43
2022-08-19T10:42:04.747Z,24.38
2022-08-19T10:43:07.749Z,24.50
2022-08-19T10:44:07.778Z,24.63
2022-08-19T10:45:04.972Z,24.73
2022-08-19T10:46:04.740Z,24.86
2022-08-19T10:47:17.942Z,24.98
2022-08-19T10:48:05.721Z,24.92
2022-08-19T10:49:04.633Z,24.77
2022-08-19T10:50:04.814Z,24.45
2022-08-19T10:51:04.642Z,24.28
2022-08-19T10:52:04.614Z,24.30
2022-08-19T10:53:08.083Z,24.23
2022-08-19T10:54:06.812Z,24.30
2022-08-19T10:55:08.485Z,24.47
2022-08-19T10:56:04.579Z,24.57
2022-08-19T10:57:04.517Z,24.54
2022-08-19T10:58:04.707Z,24.48
2022-08-19T10:59:04.518Z,24.53
2022-08-19T11:00:04.499Z,24.69
2022-08-19T11:01:04.572Z,24.86
2022-08-19T11:02:04.459Z,24.89
2022-08-19T11:03:07.438Z,25.04
2022-08-19T11:04:07.459Z,25.16
2022-08-19T11:05:12.342Z,25.28
2022-08-19T11:06:05.443Z,25.25
2022-08-19T11:07:04.391Z,25.03
2022-08-19T11:08:04.402Z,24.95
2022-08-19T11:09:05.363Z,24.85
2022-08-19T11:10:04.412Z,24.92
2022-08-19T11:11:04.347Z,25.03
2022-08-19T11:12:05.019Z,25.17
2022-08-19T11:13:04.314Z,25.25
2022-08-19T11:14:04.305Z,25.33
2022-08-19T11:15:04.284Z,25.41
2022-08-19T11:16:07.647Z,25.50
2022-08-19T11:17:04.259Z,25.62
2022-08-19T11:18:04.246Z,25.77
2022-08-19T11:19:04.242Z,25.85
2022-08-19T11:20:04.269Z,25.54
2022-08-19T11:21:04.212Z,25.21
2022-08-19T11:22:04.188Z,25.21
2022-08-19T11:23:07.189Z,25.16
2022-08-19T11:24:07.169Z,25.21
2022-08-19T11:25:04.151Z,25.33
2022-08-19T11:26:04.290Z,25.48
2022-08-19T11:27:04.121Z,25.47
2022-08-19T11:28:04.111Z,25.43
2022-08-19T11:29:04.094Z,25.40
2022-08-19T11:30:04.082Z,25.33
2022-08-19T11:31:04.093Z,25.16
2022-08-19T11:32:04.099Z,25.29
2022-08-19T11:33:04.075Z,25.47
2022-08-19T11:34:04.042Z,25.63
2022-08-19T11:35:04.014Z,25.80
2022-08-19T11:36:04.006Z,25.73
2022-08-19T11:37:03.994Z,25.75
2022-08-19T11:38:07.174Z,25.77
2022-08-19T11:39:04.965Z,25.85
2022-08-19T11:40:04.061Z,25.93
2022-08-19T11:41:03.950Z,25.96
2022-08-19T11:42:03.988Z,25.90
2022-08-19T11:43:06.909Z,25.85
2022-08-19T11:44:06.921Z,25.90
2022-08-19T11:45:03.886Z,26.00
2022-08-19T11:46:03.870Z,26.15
2022-08-19T11:47:09.098Z,26.19
2022-08-19T11:48:04.875Z,26.22
2022-08-19T11:49:03.833Z,26.28
2022-08-19T11:50:03.822Z,26.31
2022-08-19T11:51:03.836Z,26.06
2022-08-19T11:52:03.833Z,26.05
2022-08-19T11:53:03.812Z,26.03
2022-08-19T11:54:03.802Z,26.00
2022-08-19T11:55:03.745Z,26.02
2022-08-19T11:56:03.735Z,26.02
2022-08-19T11:57:03.725Z,26.05
2022-08-19T11:58:03.718Z,26.19
2022-08-19T11:59:03.725Z,26.28
2022-08-19T12:00:03.688Z,26.34
2022-08-19T12:01:04.653Z,26.48
2022-08-19T12:02:03.689Z,26.59
2022-08-19T12:03:06.680Z,26.68
2022-08-19T12:04:06.701Z,26.70
2022-08-19T12:05:03.629Z,26.70
2022-08-19T12:06:05.112Z,26.73
2022-08-19T12:07:03.600Z,26.84
2022-08-19T12:08:03.602Z,26.96
2022-08-19T12:09:03.573Z,27.00
2022-08-19T12:10:03.698Z,26.74
2022-08-19T12:11:04.303Z,26.56
2022-08-19T12:12:03.563Z,26.59
2022-08-19T12:13:03.535Z,26.59
2022-08-19T12:14:03.516Z,26.62
2022-08-19T12:15:03.505Z,26.47
2022-08-19T12:16:04.256Z,26.51
2022-08-19T12:17:03.465Z,26.44
2022-08-19T12:18:03.475Z,26.29
2022-08-19T12:19:03.436Z,26.25
2022-08-19T12:20:03.421Z,26.18
2022-08-19T12:21:04.869Z,26.06
2022-08-19T12:22:03.507Z,25.85
2022-08-19T12:23:06.410Z,25.87
2022-08-19T12:24:06.390Z,25.88
2022-08-19T12:25:03.352Z,25.98
2022-08-19T12:26:04.103Z,26.03
2022-08-19T12:27:03.402Z,26.13
2022-08-19T12:28:04.021Z,26.21
2022-08-19T12:29:03.294Z,26.22
2022-08-19T12:30:03.283Z,26.23
2022-08-19T12:31:04.047Z,26.31
2022-08-19T12:32:05.018Z,26.21
2022-08-19T12:33:03.288Z,26.00
2022-08-19T12:34:03.250Z,26.02
2022-08-19T12:35:03.217Z,25.88
2022-08-19T12:36:03.976Z,25.93
2022-08-19T12:37:03.228Z,26.02
2022-08-19T12:38:03.240Z,26.05
2022-08-19T12:39:03.170Z,26.18
2022-08-19T12:40:03.327Z,26.36
2022-08-19T12:41:03.903Z,26.40
2022-08-19T12:42:03.143Z,26.52
2022-08-19T12:43:06.140Z,26.63
2022-08-19T12:44:06.122Z,26.56
2022-08-19T12:45:03.081Z,26.47
2022-08-19T12:46:03.822Z,26.43
2022-08-19T12:47:03.534Z,26.44
2022-08-19T12:48:03.488Z,26.37
2022-08-19T12:49:06.226Z,26.31
2022-08-19T12:50:06.935Z,26.23
2022-08-19T12:51:03.782Z,26.23
2022-08-19T12:52:03.005Z,26.15